Time;durP1;ratioP1;P1;durP2;ratioP2;P2;SDS_P1;SDS_P2;PMS_P1;PMS_P2;Temp;Humidity;BMP_temperature;BMP_pressure;BME280_temperature;BME280_humidity;BME280_pressure;Samples;Min_cycle;Max_cycle;Signal;HPM_P1;HPM_P2
2022/12/24 00:02:17;;;;;;;17.83;2.95;;;12.10;84.50;;;;;;5098214;27;20038;-71
2022/12/24 00:04:42;;;;;;;15.43;3.70;;;12.10;84.50;;;;;;5102140;28;20027;-71
2022/12/24 00:07:08;;;;;;;18.48;3.83;;;12.10;84.50;;;;;;5115866;28;20367;-71
2022/12/24 00:09:34;;;;;;;17.80;3.42;;;12.10;84.50;;;;;;5109980;28;20028;-71
2022/12/24 00:11:59;;;;;;;22.33;4.45;;;12.10;84.40;;;;;;5104742;28;20036;-71
2022/12/24 00:14:25;;;;;;;15.73;3.72;;;12.00;84.90;;;;;;5104619;28;20119;-71
2022/12/24 00:16:51;;;;;;;20.58;5.07;;;12.10;84.20;;;;;;5114117;28;20020;-71
2022/12/24 00:19:16;;;;;;;19.45;4.13;;;12.10;84.20;;;;;;5096662;28;20036;-71
2022/12/24 00:21:42;;;;;;;18.70;4.35;;;12.00;84.00;;;;;;5110876;28;20035;-71
2022/12/24 00:24:08;;;;;;;16.30;3.35;;;12.10;83.90;;;;;;5112066;27;20028;-71
2022/12/24 00:26:34;;;;;;;21.85;4.25;;;12.10;83.90;;;;;;5113540;27;20368;-71
2022/12/24 00:28:59;;;;;;;18.92;3.88;;;12.10;83.80;;;;;;5113891;28;20028;-71
2022/12/24 00:31:25;;;;;;;19.23;4.22;;;12.00;83.80;;;;;;5098193;28;20032;-71
2022/12/24 00:33:51;;;;;;;19.08;4.28;;;12.00;83.80;;;;;;5106546;28;20028;-71
2022/12/24 00:36:18;;;;;;;19.85;4.13;;;12.00;83.70;;;;;;5107330;28;20102;-71
2022/12/24 00:38:44;;;;;;;20.05;4.30;;;12.00;83.70;;;;;;5114425;27;20019;-72
2022/12/24 00:41:23;;;;;;;20.92;4.72;;;12.00;83.70;;;;;;5122049;27;20042;-71
2022/12/24 00:44:09;;;;;;;20.25;3.88;;;12.00;83.60;;;;;;5105318;28;20036;-72
2022/12/24 00:46:36;;;;;;;19.50;3.90;;;12.00;83.50;;;;;;5109455;28;20035;-72
2022/12/24 00:49:02;;;;;;;20.55;4.97;;;12.00;83.50;;;;;;5094049;28;20023;-71
2022/12/24 00:51:28;;;;;;;18.23;4.15;;;12.00;83.50;;;;;;5112773;28;20059;-71
2022/12/24 00:53:54;;;;;;;15.68;4.10;;;12.00;83.40;;;;;;5101329;27;20047;-71
2022/12/24 00:56:20;;;;;;;18.05;3.90;;;12.00;83.40;;;;;;5118203;27;20507;-71
2022/12/24 00:58:46;;;;;;;23.90;4.50;;;12.00;83.40;;;;;;5106313;28;20020;-72
2022/12/24 01:01:13;;;;;;;15.90;3.45;;;12.00;83.30;;;;;;5110387;28;20095;-71
2022/12/24 01:03:39;;;;;;;18.90;4.38;;;12.00;83.30;;;;;;5107044;28;20023;-71
2022/12/24 01:06:13;;;;;;;18.05;4.10;;;12.00;83.20;;;;;;5100415;28;20111;-71
2022/12/24 01:08:39;;;;;;;18.63;4.40;;;12.00;83.20;;;;;;5107062;28;20027;-71
2022/12/24 01:11:07;;;;;;;19.05;5.00;;;12.00;83.20;;;;;;5106140;27;20084;-71
2022/12/24 01:13:35;;;;;;;19.45;3.80;;;12.00;83.20;;;;;;5122529;27;20023;-71
2022/12/24 01:16:00;;;;;;;22.02;3.97;;;12.00;83.20;;;;;;5108887;27;20406;-71
2022/12/24 01:18:27;;;;;;;19.73;4.53;;;12.00;83.20;;;;;;5115183;27;20043;-71
2022/12/24 01:21:00;;;;;;;19.50;3.70;;;12.00;83.10;;;;;;5105106;28;20059;-71
2022/12/24 01:23:26;;;;;;;16.55;3.80;;;12.00;83.10;;;;;;5115581;27;20119;-71
2022/12/24 01:25:52;;;;;;;20.38;4.35;;;12.00;83.10;;;;;;5111993;28;20027;-71
2022/12/24 01:28:19;;;;;;;20.50;3.92;;;12.00;83.10;;;;;;5102673;28;20449;-71
2022/12/24 01:30:45;;;;;;;24.38;5.03;;;12.00;83.10;;;;;;5101464;27;20574;-70
2022/12/24 01:33:11;;;;;;;18.85;4.03;;;12.00;83.10;;;;;;5122058;27;20087;-70
2022/12/24 01:35:43;;;;;;;18.50;4.10;;;12.00;83.10;;;;;;5114938;28;20020;-71
2022/12/24 01:38:10;;;;;;;26.15;4.45;;;12.00;83.10;;;;;;5098082;28;20342;-71
2022/12/24 01:43:22;;;;;;;23.55;4.57;;;12.00;83.00;;;;;;5094682;28;20112;-71
2022/12/24 01:46:25;;;;;;;21.95;4.03;;;12.00;83.00;;;;;;5105579;27;20066;-71
2022/12/24 01:49:00;;;;;;;18.02;4.68;;;11.90;82.80;;;;;;5102155;28;20047;-71
2022/12/24 01:51:42;;;;;;;19.23;4.47;;;11.90;82.90;;;;;;5094685;28;20525;-71
2022/12/24 01:54:11;;;;;;;19.35;3.33;;;11.90;82.90;;;;;;5101866;28;20024;-70
2022/12/24 01:56:43;;;;;;;23.98;4.40;;;11.90;82.90;;;;;;5100756;28;20085;-71
2022/12/24 01:59:13;;;;;;;23.08;4.85;;;11.90;82.90;;;;;;5094716;28;20035;-71
2022/12/24 02:01:39;;;;;;;16.08;3.58;;;11.90;82.90;;;;;;5108406;28;20456;-71
2022/12/24 02:04:29;;;;;;;22.83;3.90;;;11.90;82.90;;;;;;5096998;28;20063;-71
2022/12/24 02:06:55;;;;;;;17.13;4.07;;;11.90;82.90;;;;;;5116905;28;20107;-71
2022/12/24 02:09:21;;;;;;;26.13;4.93;;;11.90;83.00;;;;;;5112218;28;20123;-71
2022/12/24 02:11:47;;;;;;;22.58;4.75;;;11.90;83.00;;;;;;5094633;28;20103;-71
2022/12/24 02:14:14;;;;;;;23.58;4.00;;;11.80;82.90;;;;;;5102369;28;20059;-71
2022/12/24 02:17:09;;;;;;;20.38;4.40;;;11.80;82.90;;;;;;5104465;28;20051;-71
2022/12/24 02:20:33;;;;;;;17.13;4.13;;;11.90;82.90;;;;;;5104495;28;20059;-71
2022/12/24 02:23:22;;;;;;;15.88;4.57;;;11.80;82.80;;;;;;5032181;28;20029;-71
2022/12/24 02:26:25;;;;;;;21.38;4.22;;;11.80;82.90;;;;;;5031725;28;20017;-71
2022/12/24 02:29:10;;;;;;;27.63;4.60;;;11.80;82.90;;;;;;5030753;28;20454;-71
2022/12/24 02:31:48;;;;;;;23.55;4.28;;;11.70;83.50;;;;;;5032931;28;20051;-71
2022/12/24 02:34:26;;;;;;;21.67;4.70;;;11.70;83.00;;;;;;5043089;28;20041;-71
2022/12/24 02:37:06;;;;;;;19.98;3.50;;;11.70;83.00;;;;;;5032557;28;20037;-70
2022/12/24 02:39:44;;;;;;;14.40;3.97;;;11.70;83.00;;;;;;5033762;28;20030;-71
2022/12/24 02:42:14;;;;;;;20.83;3.50;;;11.60;82.80;;;;;;5017068;28;20033;-70
2022/12/24 02:45:00;;;;;;;22.27;3.60;;;11.60;82.90;;;;;;5015967;28;20064;-71
2022/12/24 02:47:27;;;;;;;20.27;4.25;;;11.60;83.50;;;;;;5029859;28;20045;-71
2022/12/24 02:49:53;;;;;;;20.67;4.43;;;11.60;83.00;;;;;;5032115;28;20112;-71
2022/12/24 02:52:30;;;;;;;19.80;2.97;;;11.50;82.90;;;;;;5015300;28;20141;-71
2022/12/24 02:55:00;;;;;;;20.83;4.32;;;11.50;82.80;;;;;;5012345;28;20061;-71
2022/12/24 02:58:11;;;;;;;16.15;4.45;;;11.50;82.80;;;;;;5092118;28;20073;-71
2022/12/24 03:00:57;;;;;;;17.02;4.00;;;11.50;82.70;;;;;;5089654;28;20028;-71
2022/12/24 03:03:46;;;;;;;14.25;3.83;;;11.50;82.80;;;;;;5127411;27;20085;-71
2022/12/24 03:06:47;;;;;;;21.80;4.97;;;11.40;82.80;;;;;;5105265;28;20116;-70
2022/12/24 03:09:19;;;;;;;18.52;3.78;;;11.50;82.80;;;;;;5109230;28;20024;-71
2022/12/24 03:11:56;;;;;;;19.10;3.53;;;11.40;82.90;;;;;;5108003;28;20028;-71
2022/12/24 03:14:22;;;;;;;15.55;3.67;;;11.40;82.80;;;;;;5104408;28;20032;-71
2022/12/24 03:16:49;;;;;;;17.92;3.40;;;11.40;82.80;;;;;;5107371;28;20027;-71
2022/12/24 03:19:15;;;;;;;13.50;3.30;;;11.40;83.40;;;;;;5097728;27;20099;-71
2022/12/24 03:21:41;;;;;;;16.23;3.67;;;11.40;82.80;;;;;;5107694;28;20063;-71
2022/12/24 03:24:10;;;;;;;14.50;3.22;;;11.40;82.70;;;;;;5113620;27;20412;-71
2022/12/24 03:26:37;;;;;;;18.52;3.60;;;11.40;82.70;;;;;;5109736;28;20053;-71
2022/12/24 03:29:05;;;;;;;16.63;3.97;;;11.40;82.70;;;;;;5105075;28;20102;-71
2022/12/24 03:31:45;;;;;;;19.23;3.92;;;11.40;82.70;;;;;;5114148;28;20028;-71
2022/12/24 03:34:12;;;;;;;15.73;3.92;;;11.40;82.70;;;;;;5102656;28;20024;-71
2022/12/24 03:36:38;;;;;;;20.00;3.70;;;11.40;82.70;;;;;;5106176;28;20026;-71
2022/12/24 03:39:04;;;;;;;19.33;3.92;;;11.40;82.70;;;;;;5118733;27;20110;-71
2022/12/24 03:41:30;;;;;;;21.17;4.28;;;11.40;82.80;;;;;;5113995;27;20116;-71
2022/12/24 03:43:56;;;;;;;16.73;3.50;;;11.40;82.80;;;;;;5101160;28;20496;-71
2022/12/24 03:46:23;;;;;;;19.20;4.35;;;11.40;82.90;;;;;;5107289;28;20126;-71
2022/12/24 03:48:49;;;;;;;18.27;4.55;;;11.40;83.50;;;;;;5096573;28;20031;-71
2022/12/24 03:51:20;;;;;;;21.42;4.72;;;11.40;82.80;;;;;;5104843;28;20028;-71
2022/12/24 03:53:45;;;;;;;21.65;4.25;;;11.40;82.80;;;;;;5132869;27;20086;-71
2022/12/24 03:56:11;;;;;;;18.98;4.18;;;11.40;82.80;;;;;;5110250;27;20032;-71
2022/12/24 03:58:37;;;;;;;21.45;3.55;;;11.40;82.90;;;;;;5104863;28;20024;-71
2022/12/24 04:01:03;;;;;;;22.35;4.13;;;11.40;82.90;;;;;;5104066;28;20028;-71
2022/12/24 04:03:28;;;;;;;14.05;4.50;;;11.40;82.90;;;;;;5104158;28;20066;-71
2022/12/24 04:06:03;;;;;;;19.00;3.83;;;11.40;82.90;;;;;;5098100;28;20479;-71
2022/12/24 04:08:28;;;;;;;12.23;3.78;;;11.40;82.90;;;;;;5100468;28;20023;-71
2022/12/24 04:10:54;;;;;;;21.67;4.30;;;11.50;83.10;;;;;;5102046;28;20034;-71
2022/12/24 04:13:20;;;;;;;15.45;4.07;;;11.40;83.10;;;;;;5095538;28;20112;-71
2022/12/24 04:15:55;;;;;;;20.67;3.58;;;11.50;83.10;;;;;;5101737;28;20028;-71
2022/12/24 04:18:20;;;;;;;20.73;4.50;;;11.50;83.10;;;;;;5097209;28;20054;-71
2022/12/24 04:20:46;;;;;;;17.98;4.13;;;11.50;83.20;;;;;;5111674;28;20023;-71
2022/12/24 04:23:12;;;;;;;23.52;4.57;;;11.50;83.20;;;;;;5113174;28;20032;-71
2022/12/24 04:25:37;;;;;;;19.08;4.65;;;11.50;83.20;;;;;;5113756;27;20431;-71
2022/12/24 04:28:03;;;;;;;24.75;4.40;;;11.50;83.30;;;;;;5101336;28;20043;-71
2022/12/24 04:30:29;;;;;;;17.83;4.75;;;11.50;83.30;;;;;;5110494;28;20030;-71
2022/12/24 04:32:54;;;;;;;22.70;4.53;;;11.60;83.40;;;;;;5107720;28;20423;-71
2022/12/24 04:35:20;;;;;;;21.15;4.93;;;11.60;83.40;;;;;;5110488;28;20051;-71
2022/12/24 04:37:45;;;;;;;20.30;4.45;;;11.60;83.40;;;;;;5101397;28;20103;-71
2022/12/24 04:40:11;;;;;;;17.90;4.85;;;11.60;83.40;;;;;;5114853;27;20030;-71
2022/12/24 04:42:37;;;;;;;16.98;4.68;;;11.60;83.40;;;;;;5103753;28;20036;-71
2022/12/24 04:45:03;;;;;;;25.50;5.35;;;11.70;83.50;;;;;;5113240;28;20034;-71
2022/12/24 04:47:28;;;;;;;16.52;4.57;;;11.70;83.50;;;;;;5109928;27;20032;-71
2022/12/24 04:49:54;;;;;;;19.95;5.10;;;11.70;83.50;;;;;;5116223;27;20039;-71
2022/12/24 04:52:20;;;;;;;16.85;4.57;;;11.70;83.60;;;;;;5114661;28;20042;-71
2022/12/24 04:54:46;;;;;;;20.55;4.95;;;11.70;83.60;;;;;;5098253;28;20035;-71
2022/12/24 04:57:11;;;;;;;22.42;4.75;;;11.70;84.30;;;;;;5095997;28;20024;-71
2022/12/24 04:59:37;;;;;;;22.13;4.90;;;11.70;83.70;;;;;;5095578;28;20115;-71
2022/12/24 05:02:03;;;;;;;18.58;4.80;;;11.70;83.70;;;;;;5109328;28;20107;-71
2022/12/24 05:04:28;;;;;;;18.52;4.50;;;11.80;83.80;;;;;;5102743;27;20066;-71
2022/12/24 05:06:54;;;;;;;16.98;4.30;;;11.80;83.90;;;;;;5112086;28;20027;-69
2022/12/24 05:09:20;;;;;;;19.55;4.72;;;11.80;83.80;;;;;;5094264;28;20036;-71
2022/12/24 05:11:45;;;;;;;19.67;4.25;;;11.80;83.90;;;;;;5111439;27;20518;-71
2022/12/24 05:14:11;;;;;;;21.77;4.45;;;11.80;84.00;;;;;;5109041;28;20554;-71
2022/12/24 05:16:37;;;;;;;19.50;4.78;;;11.80;84.00;;;;;;5112384;28;20035;-71
2022/12/24 05:19:03;;;;;;;18.65;5.90;;;11.80;84.00;;;;;;5121223;27;20047;-71
2022/12/24 05:21:29;;;;;;;22.80;5.50;;;11.80;84.00;;;;;;5113295;28;20110;-71
2022/12/24 05:26:48;;;;;;;17.45;4.50;;;11.80;84.10;;;;;;5113639;28;20341;-71
2022/12/24 05:29:14;;;;;;;23.48;5.18;;;11.90;84.20;;;;;;5105763;28;20105;-71
2022/12/24 05:31:42;;;;;;;22.58;4.93;;;11.90;84.20;;;;;;5109234;28;20027;-71
2022/12/24 05:34:09;;;;;;;23.75;5.35;;;11.90;84.20;;;;;;5109045;28;20072;-71
2022/12/24 05:36:34;;;;;;;19.80;5.75;;;11.90;84.20;;;;;;5111265;28;20015;-71
2022/12/24 05:39:00;;;;;;;20.42;4.53;;;11.90;84.20;;;;;;5101124;28;20445;-71
2022/12/24 05:41:26;;;;;;;27.05;5.38;;;11.90;84.30;;;;;;5098417;28;20023;-71
2022/12/24 05:43:52;;;;;;;18.95;5.25;;;11.90;84.40;;;;;;5106965;28;20039;-71
2022/12/24 05:46:20;;;;;;;20.77;3.70;;;11.90;84.50;;;;;;5111405;28;20023;-71
2022/12/24 05:48:46;;;;;;;18.83;4.28;;;11.90;84.60;;;;;;5112805;27;20028;-71
2022/12/24 05:51:13;;;;;;;17.88;4.75;;;11.90;84.60;;;;;;5103463;28;20037;-71
2022/12/24 05:53:40;;;;;;;19.95;4.22;;;11.90;84.70;;;;;;5110745;28;20024;-71
2022/12/24 05:56:28;;;;;;;17.85;3.95;;;11.90;84.70;;;;;;5080233;28;20047;-71
2022/12/24 05:58:54;;;;;;;18.08;4.28;;;11.90;84.70;;;;;;5088908;28;20118;-71
2022/12/24 06:01:21;;;;;;;26.00;4.70;;;11.90;84.80;;;;;;5094560;28;20055;-71
2022/12/24 06:03:48;;;;;;;20.67;4.85;;;11.90;84.80;;;;;;5106938;28;20028;-71
2022/12/24 06:06:18;;;;;;;18.15;4.65;;;11.90;84.80;;;;;;5106911;28;20032;-71
2022/12/24 06:08:44;;;;;;;20.75;4.72;;;11.90;84.80;;;;;;5102575;28;20357;-71
2022/12/24 06:11:15;;;;;;;21.20;5.75;;;11.90;84.90;;;;;;5105221;28;20024;-71
2022/12/24 06:13:42;;;;;;;19.80;4.10;;;11.90;84.90;;;;;;5108409;28;20480;-71
2022/12/24 06:16:12;;;;;;;20.63;4.78;;;11.90;84.90;;;;;;5100472;28;20024;-71
2022/12/24 06:18:39;;;;;;;23.90;5.33;;;11.90;84.90;;;;;;5107911;28;20047;-71
2022/12/24 06:21:05;;;;;;;23.00;5.25;;;11.90;84.90;;;;;;5102592;28;20043;-71
2022/12/24 06:23:34;;;;;;;19.80;5.18;;;11.90;84.90;;;;;;5110059;28;20051;-71
2022/12/24 06:26:01;;;;;;;24.58;5.38;;;11.90;84.90;;;;;;5106250;28;20032;-71
2022/12/24 06:28:31;;;;;;;19.55;5.03;;;11.90;84.90;;;;;;5088471;28;20043;-71
2022/12/24 06:30:59;;;;;;;;;;;11.90;84.90;;;;;;5098178;28;20032;-71
2022/12/24 06:33:26;;;;;;;19.45;4.93;;;11.90;84.90;;;;;;5091570;28;19969;-71
2022/12/24 06:35:52;;;;;;;21.13;4.43;;;11.90;84.90;;;;;;5092486;28;20131;-70
2022/12/24 06:38:17;;;;;;;24.58;5.43;;;11.90;84.80;;;;;;5105753;28;20468;-71
2022/12/24 06:40:45;;;;;;;16.80;3.67;;;11.90;84.80;;;;;;5098920;28;20028;-71
2022/12/24 06:43:12;;;;;;;18.67;4.63;;;11.90;84.90;;;;;;5111980;27;20079;-71
2022/12/24 06:45:38;;;;;;;22.52;4.88;;;12.00;84.90;;;;;;5102496;28;20028;-71
2022/12/24 06:48:05;;;;;;;20.95;4.95;;;12.00;85.00;;;;;;5098493;28;20036;-72
2022/12/24 06:50:32;;;;;;;24.85;5.85;;;12.00;84.90;;;;;;5116014;28;20443;-72
2022/12/24 06:52:58;;;;;;;18.98;4.60;;;12.00;85.00;;;;;;5100568;28;20043;-72
2022/12/24 06:55:24;;;;;;;24.02;5.03;;;12.00;84.90;;;;;;5110329;28;20011;-72
2022/12/24 06:57:49;;;;;;;21.33;6.25;;;12.00;85.60;;;;;;5106021;28;20390;-71
2022/12/24 07:00:16;;;;;;;21.90;5.68;;;12.00;84.90;;;;;;5118701;27;20717;-71
2022/12/24 07:02:43;;;;;;;17.13;4.50;;;12.00;84.90;;;;;;5120241;27;20380;-72
2022/12/24 07:05:10;;;;;;;22.13;5.97;;;12.00;84.90;;;;;;5115500;28;20489;-72
2022/12/24 07:07:41;;;;;;;16.52;4.55;;;12.00;84.90;;;;;;5096762;28;20427;-71
2022/12/24 07:10:09;;;;;;;24.05;5.95;;;12.00;84.90;;;;;;5111044;28;20348;-72
2022/12/24 07:12:35;;;;;;;20.25;6.22;;;12.00;84.90;;;;;;5113972;28;20064;-71
2022/12/24 07:15:01;;;;;;;20.20;5.72;;;12.00;84.90;;;;;;5112737;28;20019;-72
2022/12/24 07:17:26;;;;;;;25.30;5.60;;;12.00;84.90;;;;;;5099182;28;20016;-72
2022/12/24 07:19:52;;;;;;;19.00;6.03;;;12.00;84.90;;;;;;5106528;28;20081;-72
2022/12/24 07:22:18;;;;;;;27.67;5.47;;;12.00;84.80;;;;;;5101371;28;20032;-72
2022/12/24 07:24:44;;;;;;;19.83;5.72;;;12.00;84.80;;;;;;5111712;28;20034;-71
2022/12/24 07:27:09;;;;;;;22.90;5.80;;;12.00;85.50;;;;;;5102591;28;20093;-72
2022/12/24 07:29:35;;;;;;;17.95;5.75;;;12.00;84.80;;;;;;5094248;28;20031;-71
2022/12/24 07:32:01;;;;;;;28.08;5.95;;;12.00;84.80;;;;;;5105258;28;20028;-71
2022/12/24 07:34:26;;;;;;;23.50;5.97;;;12.00;84.80;;;;;;5107882;28;20035;-72
2022/12/24 07:36:52;;;;;;;28.40;6.50;;;12.00;84.80;;;;;;5099673;28;20031;-72
2022/12/24 07:39:17;;;;;;;19.65;5.88;;;12.00;84.80;;;;;;5100680;28;20016;-71
2022/12/24 07:41:43;;;;;;;17.75;4.57;;;12.00;84.90;;;;;;5110354;28;20081;-71
2022/12/24 07:44:12;;;;;;;17.48;4.47;;;12.00;84.80;;;;;;5091919;27;20046;-73
2022/12/24 07:46:38;;;;;;;19.30;5.38;;;12.10;84.80;;;;;;5105974;28;20027;-75
2022/12/24 07:49:04;;;;;;;23.20;5.47;;;12.10;84.80;;;;;;5102869;28;20429;-73
2022/12/24 07:51:32;;;;;;;23.85;5.57;;;12.10;84.80;;;;;;5109675;27;20024;-74
2022/12/24 07:53:58;;;;;;;17.98;5.28;;;12.10;84.80;;;;;;5097726;28;20364;-73
2022/12/24 07:56:23;;;;;;;21.98;5.50;;;12.10;84.70;;;;;;5112457;28;20031;-74
2022/12/24 07:58:50;;;;;;;21.08;5.78;;;12.10;84.70;;;;;;5097457;28;20048;-73
2022/12/24 08:01:16;;;;;;;23.17;5.00;;;12.10;84.60;;;;;;5098424;28;20088;-73
2022/12/24 08:03:43;;;;;;;22.23;5.15;;;12.10;84.60;;;;;;5114216;27;20023;-74
2022/12/24 08:06:09;;;;;;;18.27;4.82;;;12.10;84.60;;;;;;5125161;27;20042;-73
2022/12/24 08:08:35;;;;;;;24.73;5.05;;;12.10;84.50;;;;;;5130401;28;20031;-73
2022/12/24 08:11:03;;;;;;;14.93;4.80;;;12.10;84.40;;;;;;5096300;28;20448;-74
2022/12/24 08:13:29;;;;;;;19.83;3.97;;;12.10;84.40;;;;;;5109647;28;20038;-73
2022/12/24 08:15:55;;;;;;;23.13;5.03;;;12.10;84.40;;;;;;5100942;28;20036;-72
2022/12/24 08:18:21;;;;;;;16.17;5.22;;;12.10;84.40;;;;;;5114110;28;20044;-72
2022/12/24 08:20:47;;;;;;;19.40;4.47;;;12.10;84.40;;;;;;5100925;28;20330;-73
2022/12/24 08:23:13;;;;;;;19.85;5.13;;;12.10;84.40;;;;;;5114305;28;20085;-74
2022/12/24 08:25:42;;;;;;;18.45;4.72;;;12.10;84.40;;;;;;5112001;27;20024;-77
2022/12/24 08:28:08;;;;;;;17.33;4.30;;;12.10;84.30;;;;;;5112603;28;20050;-76
2022/12/24 08:30:34;;;;;;;19.33;5.45;;;12.10;84.90;;;;;;5115507;28;20432;-74
2022/12/24 08:32:59;;;;;;;21.58;4.30;;;12.10;84.30;;;;;;5107962;28;20324;-75
2022/12/24 08:35:25;;;;;;;20.73;5.30;;;12.10;84.30;;;;;;5104168;28;20040;-75
2022/12/24 08:37:51;;;;;;;19.02;4.60;;;12.10;84.30;;;;;;5109757;27;20027;-76
2022/12/24 08:40:16;;;;;;;17.60;4.90;;;12.10;84.20;;;;;;5095991;28;20035;-75
2022/12/24 08:42:42;;;;;;;22.40;5.35;;;12.10;84.10;;;;;;5095651;28;20106;-75
2022/12/24 08:45:10;;;;;;;21.85;5.53;;;12.20;84.10;;;;;;5110087;28;20028;-75
2022/12/24 08:47:36;;;;;;;17.25;5.28;;;12.10;84.00;;;;;;5103926;28;20032;-76
2022/12/24 08:50:03;;;;;;;22.70;5.20;;;12.20;84.00;;;;;;5096563;28;20031;-76
2022/12/24 08:52:29;;;;;;;15.40;4.70;;;12.20;84.00;;;;;;5109703;28;20024;-76
2022/12/24 08:54:54;;;;;;;20.88;4.90;;;12.20;84.00;;;;;;5095371;28;20478;-76
2022/12/24 08:57:21;;;;;;;22.52;4.88;;;12.20;83.90;;;;;;5092765;28;20109;-76
2022/12/24 08:59:47;;;;;;;20.55;5.03;;;12.20;83.90;;;;;;5100950;28;20042;-76
2022/12/24 09:02:13;;;;;;;19.65;4.55;;;12.20;83.90;;;;;;5109473;27;20019;-77
2022/12/24 09:04:39;;;;;;;21.95;5.45;;;12.20;84.60;;;;;;5101883;28;20071;-76
2022/12/24 09:07:06;;;;;;;18.58;4.32;;;12.20;83.80;;;;;;5114391;28;20027;-75
2022/12/24 09:09:32;;;;;;;23.38;5.45;;;12.20;83.80;;;;;;5107208;28;20370;-73
2022/12/24 09:11:57;;;;;;;20.17;4.68;;;12.20;83.80;;;;;;5112933;28;20023;-74
2022/12/24 09:14:23;;;;;;;21.42;5.20;;;12.20;83.80;;;;;;5102898;28;20020;-74
2022/12/24 09:16:48;;;;;;;19.92;5.80;;;12.20;83.70;;;;;;5094589;28;20115;-74
2022/12/24 09:19:14;;;;;;;21.42;5.15;;;12.30;83.80;;;;;;5108390;28;20055;-75
2022/12/24 09:21:40;;;;;;;17.92;5.32;;;12.30;83.70;;;;;;5105669;28;20062;-76
2022/12/24 09:24:06;;;;;;;21.25;5.07;;;12.30;83.70;;;;;;5111010;28;20067;-76
2022/12/24 09:26:31;;;;;;;22.00;5.38;;;12.30;83.60;;;;;;5095189;28;20020;-75
2022/12/24 09:28:59;;;;;;;18.77;5.47;;;12.30;83.60;;;;;;5108863;28;20424;-75
2022/12/24 09:31:25;;;;;;;18.48;4.72;;;12.30;83.60;;;;;;5111966;28;20038;-75
2022/12/24 09:33:52;;;;;;;20.55;5.72;;;12.40;83.60;;;;;;5112953;27;20209;-75
2022/12/24 09:36:18;;;;;;;19.60;6.22;;;12.40;83.60;;;;;;5096729;28;20069;-76
2022/12/24 09:38:43;;;;;;;21.02;5.38;;;12.40;83.60;;;;;;5103713;28;20024;-75
2022/12/24 09:41:28;;;;;;;23.40;6.03;;;12.40;83.60;;;;;;5111652;28;20436;-75
2022/12/24 09:44:06;;;;;;;19.25;5.97;;;12.40;83.50;;;;;;5096708;28;20028;-75
2022/12/24 09:46:38;;;;;;;20.45;5.30;;;12.40;83.50;;;;;;5109598;28;20028;-76
2022/12/24 09:49:12;;;;;;;18.95;6.38;;;12.40;83.40;;;;;;5116208;27;21255;-76
2022/12/24 09:51:59;;;;;;;23.05;5.88;;;12.40;83.40;;;;;;5111738;28;20024;-75
2022/12/24 09:54:32;;;;;;;16.58;5.60;;;12.50;83.30;;;;;;5109410;28;20462;-75
2022/12/24 09:57:05;;;;;;;17.55;5.43;;;12.50;83.30;;;;;;5106009;28;20035;-77
2022/12/24 09:59:43;;;;;;;21.00;5.57;;;12.50;83.20;;;;;;5110466;28;20099;-75
2022/12/24 10:02:18;;;;;;;21.85;5.55;;;12.50;83.10;;;;;;5110494;28;20409;-74
2022/12/24 10:04:46;;;;;;;21.25;5.38;;;12.60;83.10;;;;;;5111240;27;20098;-76
2022/12/24 10:07:54;;;;;;;19.90;5.75;;;12.50;83.10;;;;;;5109571;28;20024;-75
2022/12/24 10:10:45;;;;;;;20.65;5.53;;;12.50;83.00;;;;;;5106801;28;20043;-74
2022/12/24 10:13:34;;;;;;;18.88;5.47;;;12.50;83.00;;;;;;5098725;28;20036;-77
2022/12/24 10:16:15;;;;;;;20.85;5.70;;;12.60;83.00;;;;;;5108309;28;20031;-77
2022/12/24 10:18:58;;;;;;;21.48;5.72;;;12.60;82.90;;;;;;5118545;28;20099;-77
2022/12/24 10:21:47;;;;;;;18.00;5.05;;;12.70;82.80;;;;;;5115508;28;20507;-77
2022/12/24 10:24:33;;;;;;;22.08;5.05;;;12.70;82.70;;;;;;5105928;28;20460;-77
2022/12/24 10:27:11;;;;;;;17.60;4.78;;;12.70;82.70;;;;;;5113752;28;20028;-77
2022/12/24 10:29:41;;;;;;;18.02;4.68;;;12.70;82.70;;;;;;5111561;28;20100;-77
2022/12/24 10:32:06;;;;;;;20.90;5.43;;;12.70;82.70;;;;;;5106218;28;20119;-78
2022/12/24 10:34:39;;;;;;;21.55;5.90;;;12.70;82.70;;;;;;5100694;28;20115;-77
2022/12/24 10:37:05;;;;;;;20.58;4.97;;;12.70;82.60;;;;;;5117433;28;20027;-77
2022/12/24 10:39:31;;;;;;;18.38;4.85;;;12.80;82.60;;;;;;5100821;28;20024;-77
2022/12/24 10:41:59;;;;;;;20.33;5.70;;;12.90;82.50;;;;;;5107639;28;20043;-77
2022/12/24 10:44:31;;;;;;;16.77;4.78;;;12.90;82.30;;;;;;5098692;28;20043;-77
2022/12/24 10:46:58;;;;;;;26.48;5.43;;;13.00;82.10;;;;;;5098403;28;20093;-77
2022/12/24 10:49:56;;;;;;;22.02;5.30;;;13.10;82.00;;;;;;5110917;28;20028;-77
2022/12/24 10:52:24;;;;;;;19.48;4.60;;;13.30;81.70;;;;;;5030161;28;20110;-77
2022/12/24 10:55:17;;;;;;;17.83;4.53;;;13.50;81.30;;;;;;5043024;28;20049;-77
2022/12/24 10:57:46;;;;;;;17.08;4.68;;;13.70;80.80;;;;;;5056664;28;20030;-77
2022/12/24 11:00:20;;;;;;;17.17;4.50;;;13.80;80.60;;;;;;5037498;28;20037;-75
2022/12/24 11:02:47;;;;;;;14.25;5.05;;;13.80;80.40;;;;;;5036365;28;20057;-75
2022/12/24 11:05:32;;;;;;;21.08;5.05;;;13.70;80.30;;;;;;5026467;28;20037;-75
2022/12/24 11:08:12;;;;;;;17.58;4.50;;;13.60;80.40;;;;;;5035832;28;20041;-75
2022/12/24 11:10:58;;;;;;;21.23;5.40;;;13.50;80.50;;;;;;5034521;28;20116;-75
2022/12/24 11:13:26;;;;;;;14.77;4.05;;;13.40;80.70;;;;;;5015762;28;20030;-75
2022/12/24 11:16:01;;;;;;;23.15;5.75;;;13.40;80.80;;;;;;5015496;28;20042;-75
2022/12/24 11:18:27;;;;;;;18.63;5.03;;;13.40;80.70;;;;;;5031469;28;20042;-75
2022/12/24 11:20:53;;;;;;;17.95;4.25;;;13.40;80.70;;;;;;5035446;28;20048;-75
2022/12/24 11:23:19;;;;;;;23.30;4.47;;;13.40;80.70;;;;;;5030293;28;20061;-75
2022/12/24 11:25:49;;;;;;;23.55;4.97;;;13.30;80.70;;;;;;5035307;28;20033;-75
2022/12/24 11:28:32;;;;;;;19.77;4.43;;;13.30;80.70;;;;;;5079510;28;20473;-75
2022/12/24 11:31:06;;;;;;;22.55;4.38;;;13.40;80.50;;;;;;5100747;28;20476;-75
2022/12/24 11:33:43;;;;;;;20.65;4.15;;;13.30;80.50;;;;;;5101269;28;20040;-76
2022/12/24 11:36:12;;;;;;;17.85;4.20;;;13.30;80.50;;;;;;5090820;28;20024;-77
2022/12/24 11:38:38;;;;;;;16.85;4.65;;;13.30;80.40;;;;;;5116108;27;20027;-77
2022/12/24 11:41:10;;;;;;;18.90;4.45;;;13.30;80.30;;;;;;5102827;28;20020;-77
2022/12/24 11:43:46;;;;;;;17.00;3.72;;;13.30;80.30;;;;;;5115284;27;20023;-76
2022/12/24 11:46:24;;;;;;;16.85;4.00;;;13.30;80.20;;;;;;5099526;28;20023;-76
2022/12/24 11:49:10;;;;;;;16.52;4.07;;;13.30;80.10;;;;;;5114496;28;20027;-77
2022/12/24 11:51:36;;;;;;;25.38;5.30;;;13.20;80.10;;;;;;5104577;28;20445;-77
2022/12/24 11:54:15;;;;;;;17.60;4.13;;;13.30;80.20;;;;;;5124224;27;20100;-77
2022/12/24 11:56:48;;;;;;;18.05;3.88;;;13.20;80.00;;;;;;5102360;28;20060;-77
2022/12/24 11:59:39;;;;;;;17.73;4.85;;;13.20;80.00;;;;;;5097575;28;20031;-76
2022/12/24 12:02:16;;;;;;;16.75;4.03;;;13.30;80.00;;;;;;5099665;28;20023;-78
2022/12/24 12:04:45;;;;;;;15.23;4.13;;;13.30;80.00;;;;;;5114127;28;20093;-76
2022/12/24 12:07:23;;;;;;;14.48;3.42;;;13.30;79.90;;;;;;5112217;28;20027;-77
2022/12/24 12:09:57;;;;;;;18.27;4.00;;;13.30;79.70;;;;;;5117160;28;20348;-76
2022/12/24 12:12:27;;;;;;;15.77;3.40;;;13.30;79.60;;;;;;5108071;28;20024;-76
2022/12/24 12:15:12;;;;;;;18.20;3.28;;;13.30;79.50;;;;;;5101197;28;20038;-77
2022/12/24 12:18:02;;;;;;;20.08;4.47;;;13.30;79.40;;;;;;5109721;28;20024;-77
2022/12/24 12:20:40;;;;;;;16.52;4.32;;;13.30;79.20;;;;;;5096120;28;20032;-77
2022/12/24 12:23:28;;;;;;;19.15;3.97;;;13.30;79.30;;;;;;5108029;28;20063;-74
2022/12/24 12:26:20;;;;;;;19.50;3.97;;;13.30;79.30;;;;;;5096678;28;20165;-74
2022/12/24 12:28:45;;;;;;;;;;;13.30;79.30;;;;;;5113870;28;20047;-72
2022/12/24 12:31:33;;;;;;;18.52;3.80;;;13.20;79.40;;;;;;5111674;28;19908;-75
2022/12/24 12:34:02;;;;;;;13.50;3.50;;;13.20;79.40;;;;;;5101962;28;20020;-73
2022/12/24 12:36:53;;;;;;;14.77;3.75;;;13.20;79.40;;;;;;5087737;27;20023;-73
2022/12/24 12:39:19;;;;;;;17.50;3.60;;;13.10;79.20;;;;;;5105145;27;20019;-73
2022/12/24 12:42:07;;;;;;;17.08;4.53;;;13.10;79.40;;;;;;5095370;28;20173;-75
2022/12/24 12:44:41;;;;;;;19.05;3.83;;;13.10;79.30;;;;;;5095180;28;20024;-75
2022/12/24 12:47:26;;;;;;;19.33;4.55;;;13.10;79.30;;;;;;5095301;28;20142;-75
2022/12/24 12:50:32;;;;;;;15.40;3.97;;;13.10;79.30;;;;;;5095172;28;20031;-75
2022/12/24 12:53:28;;;;;;;12.75;3.13;;;13.00;79.20;;;;;;5122450;27;20027;-75
2022/12/24 12:56:18;;;;;;;13.95;3.42;;;13.00;79.20;;;;;;5082098;28;20056;-75
2022/12/24 12:58:54;;;;;;;17.10;3.97;;;13.00;79.10;;;;;;5096375;28;20018;-75
2022/12/24 13:01:29;;;;;;;14.18;3.15;;;13.00;79.20;;;;;;5102802;27;20040;-75
2022/12/24 13:04:20;;;;;;;14.82;3.33;;;13.00;79.10;;;;;;5096768;28;20415;-75